Time;durP1;ratioP1;P1;durP2;ratioP2;P2;SDS_P1;SDS_P2;PMS_P1;PMS_P2;Temp;Humidity;BMP_temperature;BMP_pressure;BME280_temperature;BME280_humidity;BME280_pressure;Samples;Min_cycle;Max_cycle;Signal;HPM_P1;HPM_P2
2021/11/07 00:01:15;;;;;;;;;0.00;0.00;;;;;9.45;66.92;102211.19;5085070;28;45339;-79
2021/11/07 00:06:45;;;;;;;;;0.75;0.00;;;;;9.34;66.71;102187.44;5072355;28;45310;-80
2021/11/07 00:11:41;;;;;;;;;0.25;0.25;;;;;9.35;66.76;102186.59;5084675;28;45252;-79
2021/11/07 00:14:08;;;;;;;;;1.00;1.00;;;;;9.34;67.01;102187.44;5084896;28;45283;-79
2021/11/07 00:16:36;;;;;;;;;1.00;0.00;;;;;9.36;66.78;102197.06;5084950;28;45303;-79
2021/11/07 00:19:08;;;;;;;;;2.00;1.00;;;;;9.41;66.91;102189.44;5085106;28;45231;-79
2021/11/07 00:21:46;;;;;;;;;1.50;1.00;;;;;9.35;66.79;102174.47;5084372;28;45537;-79
2021/11/07 00:24:17;;;;;;;;;0.00;0.00;;;;;9.34;66.85;102166.63;5084633;28;45306;-79
2021/11/07 00:29:27;;;;;;;;;1.00;0.00;;;;;9.42;66.60;102167.78;5084992;28;45242;-79
2021/11/07 00:37:32;;;;;;;;;0.00;0.00;;;;;9.29;66.48;102153.47;5084460;28;45355;-79
2021/11/07 00:40:08;;;;;;;;;3.00;0.00;;;;;9.36;66.74;102163.25;5084212;28;45444;-79
2021/11/07 00:42:42;;;;;;;;;2.00;2.00;;;;;9.45;66.55;102180.91;5084162;28;46167;-78
2021/11/07 00:50:33;;;;;;;;;0.00;0.00;;;;;9.53;66.48;102180.28;5084411;28;45314;-79
2021/11/07 00:53:27;;;;;;;;;1.00;0.75;;;;;8.96;66.42;102078.66;5083491;28;47252;-79
2021/11/07 00:55:55;;;;;;;;;0.00;0.00;;;;;9.43;66.23;102156.56;5082910;28;45343;-79
2021/11/07 00:58:33;;;;;;;;;0.00;0.00;;;;;9.30;66.57;102131.84;5083932;28;45363;-79
2021/11/07 01:01:18;;;;;;;;;0.00;0.00;;;;;9.45;66.62;102161.81;5084377;28;45420;-79
2021/11/07 01:03:44;;;;;;;;;0.00;0.00;;;;;9.44;66.76;102144.47;5083970;28;45335;-79
2021/11/07 01:06:10;;;;;;;;;1.00;1.00;;;;;9.40;66.69;102134.78;5083362;28;45247;-79
2021/11/07 01:08:35;;;;;;;;;0.00;0.00;;;;;9.44;66.53;102128.88;5084178;28;45245;-80
2021/11/07 01:11:02;;;;;;;;;1.75;1.00;;;;;9.56;66.63;102142.28;5084420;28;45231;-79
2021/11/07 01:13:28;;;;;;;;;0.00;0.00;;;;;9.57;66.83;102140.56;5083901;28;46564;-79
2021/11/07 01:15:55;;;;;;;;;0.00;0.00;;;;;9.59;66.79;102133.72;5083928;28;45193;-79
2021/11/07 01:18:21;;;;;;;;;0.00;0.00;;;;;9.50;67.09;102123.88;5083982;28;45335;-79
2021/11/07 01:20:47;;;;;;;;;0.50;0.50;;;;;9.49;67.26;102117.78;5065953;28;45361;-80
2021/11/07 01:25:46;;;;;;;;;0.00;0.00;;;;;9.53;66.81;102104.91;5083667;28;45337;-80
2021/11/07 01:28:12;;;;;;;;;0.00;0.00;;;;;9.56;67.19;102108.47;5065446;28;45325;-79
2021/11/07 01:30:46;;;;;;;;;1.00;1.00;;;;;9.59;67.25;102100.78;5083852;28;45350;-79
2021/11/07 01:33:17;;;;;;;;;0.00;0.00;;;;;9.63;67.51;102100.09;5083159;28;45343;-80
2021/11/07 01:38:34;;;;;;;;;0.00;0.00;;;;;9.56;67.45;102072.09;5083155;28;45397;-79
2021/11/07 01:41:18;;;;;;;;;2.75;0.00;;;;;9.67;67.25;102079.38;5083902;28;45260;-79
2021/11/07 01:43:46;;;;;;;;;1.50;0.00;;;;;9.66;67.21;102086.31;5083376;28;46209;-79
2021/11/07 01:49:20;;;;;;;;;0.00;0.00;;;;;9.48;67.75;102058.84;5083601;28;45415;-79
2021/11/07 01:51:35;;;;;;;;;0.00;0.00;;;;;9.48;67.59;102056.25;5078290;28;45384;-79
2021/11/07 01:56:41;;;;;;;;;1.00;0.25;;;;;9.42;67.70;102053.44;5082933;28;45483;-79
2021/11/07 01:59:07;;;;;;;;;4.00;0.00;;;;;9.54;68.15;102076.38;5083316;28;45491;-79
2021/11/07 02:01:32;;;;;;;;;2.25;1.00;;;;;9.49;68.27;102072.69;5083616;28;45224;-80
2021/11/07 02:03:59;;;;;;;;;0.00;0.00;;;;;9.41;68.39;102055.97;5083104;28;45497;-79
2021/11/07 02:06:24;;;;;;;;;0.00;0.00;;;;;9.48;68.37;102063.16;5082843;28;45209;-79
2021/11/07 02:08:49;;;;;;;;;0.00;0.00;;;;;9.57;68.31;102084.28;5083217;28;45249;-79
2021/11/07 02:11:15;;;;;;;;;0.00;0.00;;;;;9.58;68.48;102075.63;5083499;28;45330;-79
2021/11/07 02:13:41;;;;;;;;;0.00;0.00;;;;;9.46;68.55;102050.09;5083119;28;45293;-79
2021/11/07 02:16:06;;;;;;;;;0.00;0.00;;;;;9.54;68.30;102046.88;5082940;28;45257;-79
2021/11/07 02:18:32;;;;;;;;;2.75;1.50;;;;;9.67;68.41;102062.06;5064167;28;45366;-79
2021/11/07 02:20:57;;;;;;;;;2.00;0.00;;;;;9.65;68.60;102050.75;5081782;28;45473;-80
2021/11/07 02:23:24;;;;;;;;;0.00;0.00;;;;;9.65;68.61;102053.34;5082858;28;45311;-79
2021/11/07 02:25:54;;;;;;;;;0.00;0.00;;;;;9.63;68.99;102053.28;5082888;28;45221;-79
2021/11/07 02:28:30;;;;;;;;;0.00;0.00;;;;;9.65;69.31;102062.84;5083037;28;45197;-80
2021/11/07 02:30:56;;;;;;;;;0.00;0.00;;;;;9.62;69.54;102054.09;5082899;28;45310;-79
2021/11/07 02:33:22;;;;;;;;;1.00;1.00;;;;;9.59;70.34;102047.94;5063882;28;47217;-79
2021/11/07 02:35:48;;;;;;;;;0.00;0.00;;;;;9.60;70.15;102034.97;5064398;28;45540;-80
2021/11/07 02:38:13;;;;;;;;;0.00;0.00;;;;;9.57;71.06;102036.59;5082447;28;45464;-79
2021/11/07 02:40:39;;;;;;;;;1.00;1.00;;;;;9.35;71.24;101996.88;5082802;28;45318;-79
2021/11/07 02:43:04;;;;;;;;;0.75;0.75;;;;;9.57;71.49;102031.38;5081290;28;47072;-79
2021/11/07 02:45:30;;;;;;;;;0.00;0.00;;;;;9.59;71.91;102017.59;5082624;28;45201;-79
2021/11/07 02:47:56;;;;;;;;;0.00;0.00;;;;;9.65;72.13;102024.75;5081486;28;45298;-80
2021/11/07 02:50:21;;;;;;;;;0.25;0.25;;;;;9.65;72.21;102034.25;5082933;28;45486;-79
2021/11/07 02:52:48;;;;;;;;;0.00;0.00;;;;;9.63;72.93;102022.09;5082167;28;46027;-79
2021/11/07 02:55:14;;;;;;;;;0.00;0.00;;;;;9.49;73.09;101994.72;5064172;28;45276;-78
2021/11/07 02:57:39;;;;;;;;;1.00;1.00;;;;;9.50;73.69;102004.31;5082388;28;45432;-80
2021/11/07 03:00:08;;;;;;;;;0.00;0.00;;;;;9.50;73.48;102005.16;5082876;28;45388;-80
2021/11/07 03:02:34;;;;;;;;;0.25;0.00;;;;;9.59;73.84;102011.53;5082368;28;45482;-78
2021/11/07 03:04:59;;;;;;;;;0.50;0.50;;;;;9.66;73.58;102010.00;5063875;28;45269;-79
2021/11/07 03:07:24;;;;;;;;;0.00;0.00;;;;;9.59;73.54;102004.59;5082326;28;45672;-79
2021/11/07 03:09:50;;;;;;;;;0.75;0.00;;;;;9.46;74.39;101981.63;5047503;28;45211;-79
2021/11/07 03:12:16;;;;;;;;;0.00;0.00;;;;;9.62;74.07;102004.69;5082230;28;46056;-79
2021/11/07 03:14:51;;;;;;;;;0.00;0.00;;;;;9.42;74.80;101975.44;5082176;28;45271;-78
2021/11/07 03:17:23;;;;;;;;;1.00;1.00;;;;;9.60;74.49;101998.59;5082132;28;45399;-79
2021/11/07 03:19:50;;;;;;;;;0.25;0.00;;;;;9.58;74.36;102001.94;5082552;28;45346;-78
2021/11/07 03:22:20;;;;;;;;;0.75;0.00;;;;;9.40;74.69;101982.31;5081925;28;45263;-79
2021/11/07 03:24:52;;;;;;;;;0.00;0.00;;;;;9.54;74.53;102000.06;5082010;28;45398;-79
2021/11/07 03:27:29;;;;;;;;;0.00;0.00;;;;;9.48;74.78;101987.75;5063891;28;45296;-79
2021/11/07 03:29:57;;;;;;;;;0.00;0.00;;;;;9.46;75.09;101986.81;5067097;28;45414;-79
2021/11/07 03:32:27;;;;;;;;;0.00;0.00;;;;;9.52;74.84;101986.16;5085020;28;45336;-79
2021/11/07 03:34:59;;;;;;;;;0.00;0.00;;;;;9.60;75.18;101990.78;5067273;28;45213;-79
2021/11/07 03:37:30;;;;;;;;;0.75;0.75;;;;;9.55;74.92;101974.13;5085569;28;45304;-79
2021/11/07 03:40:00;;;;;;;;;0.00;0.00;;;;;9.61;75.19;101983.84;5085543;28;45457;-80
2021/11/07 03:42:27;;;;;;;;;0.00;0.00;;;;;9.62;75.07;101978.69;5085465;28;46189;-78
2021/11/07 03:44:53;;;;;;;;;0.00;0.00;;;;;9.62;74.77;101970.03;5084116;28;45663;-78
2021/11/07 03:47:20;;;;;;;;;0.00;0.00;;;;;9.75;74.83;101987.81;5085690;28;45220;-78
2021/11/07 03:49:45;;;;;;;;;2.00;0.00;;;;;9.68;74.77;101971.94;5085639;28;45410;-78
2021/11/07 03:52:12;;;;;;;;;0.00;0.00;;;;;9.71;74.53;101988.50;5085168;28;46381;-79
2021/11/07 03:54:40;;;;;;;;;1.00;0.00;;;;;9.67;74.85;101991.84;5085173;28;45353;-78
2021/11/07 03:57:11;;;;;;;;;0.00;0.00;;;;;9.58;74.86;101978.53;5085204;28;45340;-78
2021/11/07 03:59:36;;;;;;;;;0.50;0.50;;;;;9.61;75.17;101989.94;5085546;28;45478;-79
2021/11/07 04:02:02;;;;;;;;;0.00;0.00;;;;;9.62;75.14;101994.31;5085147;28;46158;-79
2021/11/07 04:04:27;;;;;;;;;0.00;0.00;;;;;9.66;75.25;101986.59;5085233;28;45316;-79
2021/11/07 04:06:53;;;;;;;;;1.00;1.00;;;;;9.68;75.65;101987.53;5066678;28;45408;-79
2021/11/07 04:09:19;;;;;;;;;0.75;0.75;;;;;9.70;75.30;101984.16;5085193;28;45248;-79
2021/11/07 04:11:44;;;;;;;;;0.00;0.00;;;;;9.65;75.29;101962.34;5084827;28;46243;-79
2021/11/07 04:14:12;;;;;;;;;0.00;0.00;;;;;9.74;75.47;101978.22;5084964;28;45243;-79
2021/11/07 04:16:38;;;;;;;;;0.00;0.00;;;;;9.73;75.90;101962.56;5085220;28;45275;-78
2021/11/07 04:19:06;;;;;;;;;1.00;0.00;;;;;9.70;75.32;101955.56;5085167;28;45215;-79
2021/11/07 04:21:32;;;;;;;;;0.25;0.25;;;;;9.76;75.36;101962.66;5084509;28;45402;-78
2021/11/07 04:23:57;;;;;;;;;0.25;0.25;;;;;9.71;75.63;101951.25;5083341;28;45277;-79
2021/11/07 04:26:23;;;;;;;;;1.00;1.00;;;;;9.74;75.44;101948.75;5084962;28;45291;-78
2021/11/07 04:28:49;;;;;;;;;1.00;1.00;;;;;9.85;75.10;101956.88;5085225;28;45425;-79
2021/11/07 04:31:15;;;;;;;;;1.00;0.00;;;;;9.85;75.04;101955.16;5084371;28;45477;-79
2021/11/07 04:33:40;;;;;;;;;1.75;0.00;;;;;9.58;75.44;101905.75;5084176;28;45160;-79
2021/11/07 04:36:06;;;;;;;;;0.00;0.00;;;;;9.75;75.27;101934.91;5084686;28;45215;-79
2021/11/07 04:38:34;;;;;;;;;0.00;0.00;;;;;9.87;75.16;101955.22;5084951;28;45522;-79
2021/11/07 04:41:00;;;;;;;;;0.50;0.50;;;;;9.78;75.05;101942.81;5083660;28;45470;-79
2021/11/07 04:43:25;;;;;;;;;0.00;0.00;;;;;9.89;75.23;101961.31;5084788;28;45457;-79
2021/11/07 04:45:50;;;;;;;;;0.00;0.00;;;;;9.89;75.33;101967.41;5066479;28;45362;-79
2021/11/07 04:48:16;;;;;;;;;0.00;0.00;;;;;9.92;75.18;101955.34;5084791;28;45588;-79
2021/11/07 04:50:41;;;;;;;;;1.50;0.25;;;;;9.88;75.08;101944.84;5084368;28;46253;-79
2021/11/07 04:53:10;;;;;;;;;0.00;0.00;;;;;9.80;75.15;101906.44;5084127;28;45298;-78
2021/11/07 04:55:38;;;;;;;;;0.00;0.00;;;;;9.88;74.70;101921.44;5084232;28;45181;-79
2021/11/07 04:58:05;;;;;;;;;0.00;0.00;;;;;9.87;75.29;101913.59;5084085;28;45500;-79
2021/11/07 05:00:32;;;;;;;;;1.00;1.00;;;;;9.95;75.24;101932.03;5083977;28;46161;-79
2021/11/07 05:03:00;;;;;;;;;0.00;0.00;;;;;9.81;74.73;101916.00;5084153;28;45350;-79
2021/11/07 05:05:26;;;;;;;;;1.50;0.75;;;;;9.84;74.91;101926.50;5084370;28;45173;-79
2021/11/07 05:07:53;;;;;;;;;0.25;0.25;;;;;9.70;75.54;101900.94;5065837;28;45531;-78
2021/11/07 05:10:19;;;;;;;;;0.00;0.00;;;;;9.85;75.61;101923.94;5065525;28;46638;-79
2021/11/07 05:12:45;;;;;;;;;0.00;0.00;;;;;9.68;75.09;101896.53;5083839;28;45290;-79
2021/11/07 05:15:11;;;;;;;;;0.00;0.00;;;;;9.82;75.39;101907.34;5084140;28;45426;-78
2021/11/07 05:17:37;;;;;;;;;1.00;1.00;;;;;9.79;75.45;101897.75;5082916;28;45444;-78
2021/11/07 05:20:04;;;;;;;;;0.00;0.00;;;;;9.66;75.68;101888.69;5083723;28;46365;-79
2021/11/07 05:22:30;;;;;;;;;1.75;0.75;;;;;9.75;75.75;101899.38;5083584;28;45323;-78
2021/11/07 05:24:55;;;;;;;;;0.75;0.00;;;;;9.84;76.39;101918.69;5083912;28;45510;-79
2021/11/07 05:27:20;;;;;;;;;1.75;0.00;;;;;9.78;75.54;101901.19;5084707;28;45437;-80
2021/11/07 05:29:46;;;;;;;;;0.50;0.00;;;;;9.62;75.76;101876.44;5083859;28;46286;-79
2021/11/07 05:32:11;;;;;;;;;1.00;1.00;;;;;9.82;75.78;101902.16;5084461;28;45158;-79
2021/11/07 05:34:40;;;;;;;;;0.00;0.00;;;;;9.76;75.46;101882.03;5084103;28;45630;-79
2021/11/07 05:37:06;;;;;;;;;0.00;0.00;;;;;9.93;75.59;101907.69;5084051;28;45533;-79
2021/11/07 05:39:31;;;;;;;;;0.00;0.00;;;;;9.91;75.84;101893.75;5082158;28;45956;-78
2021/11/07 05:41:57;;;;;;;;;0.00;0.00;;;;;9.95;75.87;101882.63;5065466;28;45375;-78
2021/11/07 05:44:22;;;;;;;;;0.00;0.00;;;;;9.25;75.51;101754.91;5083746;28;45332;-79
2021/11/07 05:46:48;;;;;;;;;1.00;0.00;;;;;10.01;75.69;101893.19;5083882;28;45306;-79
2021/11/07 05:49:14;;;;;;;;;0.00;0.00;;;;;9.91;75.61;101875.53;5083432;28;45354;-79
2021/11/07 05:51:39;;;;;;;;;1.25;1.25;;;;;10.01;75.81;101888.88;5083035;28;45318;-79
2021/11/07 05:54:05;;;;;;;;;0.00;0.00;;;;;10.07;75.76;101882.97;5083636;28;45521;-79
2021/11/07 05:56:31;;;;;;;;;0.00;0.00;;;;;10.10;75.79;101887.38;5065598;28;45434;-79
2021/11/07 05:58:58;;;;;;;;;0.00;0.00;;;;;10.11;75.77;101895.22;5083162;28;45306;-80
2021/11/07 06:01:23;;;;;;;;;1.00;1.00;;;;;10.08;75.73;101894.25;5083226;28;45180;-79
2021/11/07 06:03:48;;;;;;;;;1.25;1.00;;;;;10.13;75.62;101898.75;5083558;28;45280;-79
2021/11/07 06:06:14;;;;;;;;;1.00;0.00;;;;;10.14;75.71;101905.72;5083455;28;45592;-79
2021/11/07 06:08:39;;;;;;;;;0.75;0.75;;;;;10.14;75.88;101905.72;5083065;28;46208;-79
2021/11/07 06:11:05;;;;;;;;;0.50;0.50;;;;;10.10;75.54;101890.84;5083261;28;45382;-79
2021/11/07 06:13:30;;;;;;;;;0.25;0.00;;;;;10.01;75.63;101887.97;5083185;28;45326;-79
2021/11/07 06:15:57;;;;;;;;;0.00;0.00;;;;;9.91;76.14;101881.63;5083662;28;45391;-79
2021/11/07 06:18:23;;;;;;;;;0.00;0.00;;;;;10.00;76.01;101876.72;5083199;28;45375;-80
2021/11/07 06:20:49;;;;;;;;;1.00;1.00;;;;;10.13;75.80;101906.56;5064545;28;45338;-79
2021/11/07 06:23:14;;;;;;;;;0.00;0.00;;;;;10.09;76.24;101902.13;5083256;28;45405;-79
2021/11/07 06:25:40;;;;;;;;;0.00;0.00;;;;;10.21;76.25;101905.91;5083441;28;45318;-80
2021/11/07 06:28:06;;;;;;;;;1.00;1.00;;;;;10.20;76.12;101902.41;5082902;28;46189;-80
2021/11/07 06:30:33;;;;;;;;;0.00;0.00;;;;;10.19;76.24;101904.97;5082918;28;45223;-79
2021/11/07 06:32:58;;;;;;;;;0.00;0.00;;;;;10.20;76.21;101904.16;5082664;28;45269;-79
2021/11/07 06:35:24;;;;;;;;;1.00;1.00;;;;;10.23;76.40;101891.22;5065014;28;45207;-79
2021/11/07 06:37:50;;;;;;;;;0.00;0.00;;;;;10.25;76.60;101899.94;5082511;28;46682;-80
2021/11/07 06:40:16;;;;;;;;;0.00;0.00;;;;;10.13;76.43;101870.13;5082546;28;45359;-79
2021/11/07 06:42:42;;;;;;;;;1.00;0.00;;;;;10.22;76.60;101890.34;5083040;28;45314;-79
2021/11/07 06:45:09;;;;;;;;;1.75;0.00;;;;;10.24;76.68;101882.56;5083044;28;45774;-78
2021/11/07 06:47:35;;;;;;;;;0.00;0.00;;;;;10.12;76.68;101870.97;5082531;28;45413;-79
2021/11/07 06:50:01;;;;;;;;;0.00;0.00;;;;;10.24;76.47;101873.06;5082539;28;45186;-79
2021/11/07 06:52:28;;;;;;;;;0.00;0.00;;;;;10.26;76.62;101873.97;5064446;28;45319;-79
2021/11/07 06:54:54;;;;;;;;;0.25;0.00;;;;;10.28;76.66;101874.00;5082615;28;45197;-79
2021/11/07 06:57:20;;;;;;;;;0.50;0.00;;;;;10.17;76.52;101857.22;5082331;28;45227;-80
2021/11/07 06:59:46;;;;;;;;;0.00;0.00;;;;;10.16;76.72;101861.53;5082600;28;45318;-79
2021/11/07 07:02:12;;;;;;;;;2.25;0.25;;;;;10.27;76.65;101880.06;5082681;28;45302;-80
2021/11/07 07:04:38;;;;;;;;;0.00;0.00;;;;;10.25;76.84;101879.13;5085616;28;45314;-79
2021/11/07 07:07:03;;;;;;;;;0.00;0.00;;;;;10.23;76.97;101871.25;5085679;28;45333;-79
2021/11/07 07:09:32;;;;;;;;;0.00;0.00;;;;;10.34;77.00;101871.59;5085822;28;45337;-79
2021/11/07 07:12:20;;;;;;;;;0.00;0.00;;;;;10.16;76.82;101839.84;5085745;28;45234;-79
2021/11/07 07:35:50;;;;;;;;;0.00;0.00;;;;;10.30;77.77;101887.06;5085810;28;45366;-80
2021/11/07 07:38:16;;;;;;;;;0.00;0.00;;;;;10.32;77.62;101896.66;5067306;28;47273;-79
2021/11/07 07:40:42;;;;;;;;;0.75;0.75;;;;;10.30;77.55;101887.97;5085589;28;45231;-80
2021/11/07 07:43:08;;;;;;;;;2.00;0.00;;;;;10.29;77.61;101893.97;5085537;28;45157;-79
2021/11/07 07:45:34;;;;;;;;;1.25;1.25;;;;;10.29;77.56;101896.59;5085887;28;45216;-79
2021/11/07 07:48:00;;;;;;;;;0.00;0.00;;;;;10.24;77.35;101878.25;5085599;28;45415;-79
2021/11/07 07:50:27;;;;;;;;;0.00;0.00;;;;;10.24;77.66;101879.97;5085629;28;45378;-79
2021/11/07 07:52:53;;;;;;;;;0.00;0.00;;;;;10.31;77.61;101876.69;5083797;28;45346;-79
2021/11/07 07:55:18;;;;;;;;;0.00;0.00;;;;;10.33;77.73;101871.53;5084152;28;45472;-81
2021/11/07 07:57:45;;;;;;;;;0.00;0.00;;;;;10.38;77.44;101864.72;5085092;28;46026;-80
2021/11/07 08:00:12;;;;;;;;;0.00;0.00;;;;;10.30;77.70;101861.94;5085385;28;45165;-79
2021/11/07 08:02:39;;;;;;;;;0.00;0.00;;;;;10.34;77.68;101855.97;5085348;28;45283;-79
2021/11/07 08:05:06;;;;;;;;;0.00;0.00;;;;;10.44;77.32;101874.44;5085535;28;45216;-78
2021/11/07 08:07:32;;;;;;;;;1.00;1.00;;;;;10.48;77.60;101881.53;5084749;28;45374;-80
2021/11/07 08:09:57;;;;;;;;;0.00;0.00;;;;;10.53;77.57;101882.53;5085342;28;45436;-79
2021/11/07 08:12:23;;;;;;;;;2.00;1.00;;;;;10.56;77.47;101884.34;5084699;28;45314;-81
2021/11/07 08:14:49;;;;;;;;;0.00;0.00;;;;;10.55;77.28;101888.66;5082387;28;45331;-79
2021/11/07 08:17:15;;;;;;;;;0.00;0.00;;;;;10.62;77.48;101889.69;5084973;28;45414;-79
2021/11/07 08:19:40;;;;;;;;;0.50;0.50;;;;;10.57;77.18;101878.28;5085416;28;45281;-79
2021/11/07 08:22:08;;;;;;;;;1.00;0.00;;;;;10.66;77.36;101890.69;5083090;28;45344;-79
2021/11/07 08:24:35;;;;;;;;;0.00;0.00;;;;;10.61;77.06;101874.94;5066884;28;45414;-79
2021/11/07 08:27:02;;;;;;;;;0.00;0.00;;;;;10.61;77.31;101865.41;5084483;28;46258;-80
2021/11/07 08:29:27;;;;;;;;;0.75;0.75;;;;;10.58;77.23;101854.91;5083483;28;45335;-79
2021/11/07 08:31:53;;;;;;;;;1.50;0.00;;;;;10.52;77.33;101849.53;5084662;28;45306;-80
2021/11/07 08:34:23;;;;;;;;;0.00;0.00;;;;;10.68;77.33;101862.94;5086263;28;45350;-81
2021/11/07 08:37:07;;;;;;;;;0.00;0.00;;;;;10.69;77.44;101864.72;5084726;28;45711;-80
2021/11/07 08:42:03;;;;;;;;;1.75;0.00;;;;;10.67;77.47;101851.66;5084782;28;45150;-79
2021/11/07 09:01:09;;;;;;;;;1.00;0.00;;;;;10.83;78.08;101854.66;5084324;28;45417;-80
2021/11/07 09:09:17;;;;;;;;;0.75;0.00;;;;;10.72;78.64;101855.25;5083737;28;45228;-79
2021/11/07 09:11:53;;;;;;;;;0.00;0.00;;;;;10.73;78.68;101853.53;5084272;28;45244;-79
2021/11/07 09:14:22;;;;;;;;;1.00;0.00;;;;;10.63;78.84;101839.41;5083427;28;45296;-79
2021/11/07 09:16:50;;;;;;;;;0.00;0.00;;;;;10.74;78.49;101852.69;5084050;28;45549;-79
2021/11/07 09:19:20;;;;;;;;;0.00;0.00;;;;;10.67;78.71;101837.75;5083679;28;45246;-79
2021/11/07 09:21:49;;;;;;;;;0.00;0.00;;;;;10.83;78.62;101855.53;5083530;28;45265;-79
2021/11/07 09:24:26;;;;;;;;;0.00;0.00;;;;;10.85;78.45;101856.47;5083740;28;45366;-79
2021/11/07 09:26:53;;;;;;;;;2.00;0.00;;;;;10.78;78.09;101833.69;5083606;28;45216;-79
2021/11/07 09:29:32;;;;;;;;;0.00;0.00;;;;;10.92;78.48;101867.91;5083503;28;47160;-79
2021/11/07 09:34:46;;;;;;;;;0.00;0.00;;;;;11.22;77.96;101851.28;5083710;28;45489;-78
2021/11/07 09:37:24;;;;;;;;;0.00;0.00;;;;;11.28;77.81;101840.13;5083514;28;45311;-81
2021/11/07 09:40:04;;;;;;;;;0.00;0.00;;;;;11.26;77.23;101828.75;5064793;28;47755;-80
2021/11/07 09:45:18;;;;;;;;;1.00;1.00;;;;;11.56;76.90;101845.97;5083173;28;45519;-80
2021/11/07 09:47:51;;;;;;;;;1.00;1.00;;;;;11.48;77.02;101835.34;5083926;28;45228;-81
2021/11/07 09:50:17;;;;;;;;;0.00;0.00;;;;;11.52;77.03;101857.16;5083369;28;46925;-80
2021/11/07 09:52:51;;;;;;;;;1.00;0.00;;;;;11.63;76.42;101870.44;5083152;28;45223;-79
2021/11/07 09:55:20;;;;;;;;;0.00;0.00;;;;;11.67;76.40;101861.81;5083198;28;45158;-80
2021/11/07 09:57:48;;;;;;;;;0.00;0.00;;;;;11.78;76.42;101857.75;5083005;28;45616;-81
2021/11/07 10:00:18;;;;;;;;;0.00;0.00;;;;;11.85;76.14;101860.50;5082937;28;46902;-80
2021/11/07 10:02:44;;;;;;;;;0.00;0.00;;;;;12.00;76.07;101862.53;5065341;28;45181;-79
2021/11/07 10:05:12;;;;;;;;;0.75;0.00;;;;;12.08;75.92;101867.94;5083283;28;45334;-80
2021/11/07 10:07:39;;;;;;;;;0.00;0.00;;;;;12.13;75.27;101877.63;5083355;28;45515;-81
2021/11/07 10:10:14;;;;;;;;;0.00;0.00;;;;;11.93;75.40;101843.25;5082837;28;45362;-81
2021/11/07 10:12:43;;;;;;;;;0.00;0.00;;;;;12.03;75.57;101863.47;5083046;28;45338;-79
2021/11/07 10:15:24;;;;;;;;;0.25;0.25;;;;;12.05;75.42;101876.56;5064935;28;45310;-79
2021/11/07 10:22:51;;;;;;;;;0.00;0.00;;;;;11.99;75.68;101868.59;5082403;28;45500;-80
2021/11/07 10:25:20;;;;;;;;;0.00;0.00;;;;;11.96;75.53;101864.19;5082826;28;45268;-80
2021/11/07 10:27:52;;;;;;;;;0.00;0.00;;;;;11.97;75.19;101858.13;5083296;28;45350;-80
2021/11/07 10:30:23;;;;;;;;;0.00;0.00;;;;;11.96;75.53;101839.81;5080963;28;47418;-79
2021/11/07 10:33:15;;;;;;;;;0.00;0.00;;;;;12.08;74.98;101862.72;5063949;28;45402;-80
2021/11/07 10:36:09;;;;;;;;;0.00;0.00;;;;;12.16;75.17;101871.59;5082536;28;45204;-81
2021/11/07 10:47:20;;;;;;;;;0.00;0.00;;;;;12.28;74.35;101891.81;5082619;28;45284;-79
2021/11/07 10:52:37;;;;;;;;;0.00;0.00;;;;;12.36;74.38;101884.16;5081838;28;45237;-79
2021/11/07 10:55:05;;;;;;;;;0.00;0.00;;;;;12.41;73.69;101890.38;5082311;28;45358;-79
2021/11/07 10:57:32;;;;;;;;;0.00;0.00;;;;;12.45;73.80;101883.44;5082341;28;45311;-80
2021/11/07 11:00:09;;;;;;;;;0.00;0.00;;;;;12.45;73.27;101888.69;5064295;28;45641;-79
2021/11/07 11:02:37;;;;;;;;;0.00;0.00;;;;;12.51;73.32;101881.84;5081938;28;46697;-80
2021/11/07 11:05:47;;;;;;;;;2.00;0.50;;;;;12.53;72.65;101897.56;5082121;28;45295;-80
2021/11/07 11:08:21;;;;;;;;;0.00;0.00;;;;;12.46;72.99;101880.00;5065972;28;45293;-80
2021/11/07 11:11:11;;;;;;;;;0.25;0.00;;;;;12.44;72.46;101881.69;5080673;28;45329;-79
2021/11/07 11:13:48;;;;;;;;;0.00;0.00;;;;;12.51;72.65;101883.56;5082106;28;45560;-80
2021/11/07 11:22:03;;;;;;;;;0.00;0.00;;;;;12.33;72.10;101850.16;5081906;28;45401;-80
2021/11/07 11:24:52;;;;;;;;;0.00;0.00;;;;;12.37;71.27;101871.13;5081600;28;46032;-79
2021/11/07 11:30:22;;;;;;;;;0.00;0.00;;;;;12.40;70.63;101850.31;5070349;28;45272;-80
2021/11/07 11:33:33;;;;;;;;;0.00;0.00;;;;;12.57;70.98;101849.75;5082083;28;45271;-79
2021/11/07 11:36:01;;;;;;;;;0.00;0.00;;;;;12.86;70.79;101851.13;5075388;28;46790;-78
2021/11/07 11:39:08;;;;;;;;;0.00;0.00;;;;;12.84;70.12;101817.13;5081454;28;45433;-80
2021/11/07 11:41:27;;;;;;;;;0.00;0.00;;;;;12.99;67.03;101831.28;5079295;28;45540;-79
2021/11/07 11:43:54;;;;;;;;;0.00;0.00;;;;;13.12;67.96;101846.31;5081495;28;45279;-79
2021/11/07 11:46:43;;;;;;;;;1.75;0.00;;;;;13.06;66.32;101840.97;5080018;28;46138;-79
2021/11/07 11:55:14;;;;;;;;;0.50;0.00;;;;;13.07;64.46;101844.47;5085076;28;45240;-79
2021/11/07 12:03:17;;;;;;;;;0.00;0.00;;;;;12.99;64.78;101844.34;5084984;28;45286;-80
2021/11/07 12:05:59;;;;;;;;;0.00;0.00;;;;;12.99;64.68;101850.44;5084689;28;45243;-79
2021/11/07 12:16:27;;;;;;;;;0.00;0.00;;;;;12.61;64.54;101850.66;5085036;28;45197;-80
2021/11/07 12:19:12;;;;;;;;;0.00;0.00;;;;;12.60;64.82;101844.56;5066141;28;47410;-80
2021/11/07 12:21:47;;;;;;;;;0.00;0.00;;;;;12.59;64.58;101847.16;5065653;28;45366;-79
2021/11/07 12:24:14;;;;;;;;;0.50;0.00;;;;;12.62;64.83;101839.38;5066297;28;45448;-79
2021/11/07 12:26:39;;;;;;;;;0.00;0.00;;;;;12.64;64.95;101841.16;5085970;28;45316;-80
2021/11/07 12:29:05;;;;;;;;;0.00;0.00;;;;;12.35;64.76;101797.13;5084511;28;46159;-80
2021/11/07 12:31:32;;;;;;;;;0.00;0.00;;;;;12.39;64.59;101816.31;5066076;28;45304;-79
2021/11/07 12:34:21;;;;;;;;;0.00;0.00;;;;;12.43;64.42;101841.63;5085291;28;45209;-80
2021/11/07 12:42:26;;;;;;;;;0.50;0.50;;;;;12.67;64.95;101832.50;5084527;28;45343;-80
2021/11/07 12:44:53;;;;;;;;;0.50;0.00;;;;;12.79;65.04;101826.59;5084464;28;45363;-79
2021/11/07 12:47:27;;;;;;;;;0.00;0.00;;;;;12.91;65.11;101829.44;5084933;28;45540;-79
2021/11/07 12:49:57;;;;;;;;;0.00;0.00;;;;;12.97;64.60;101812.97;5083999;28;46294;-80
2021/11/07 12:52:23;;;;;;;;;0.00;0.00;;;;;13.00;64.50;101799.06;5065175;28;45295;-79
2021/11/07 12:54:48;;;;;;;;;0.50;0.50;;;;;13.09;63.64;101812.28;5084121;28;45775;-80
2021/11/07 12:57:20;;;;;;;;;0.00;0.00;;;;;13.18;63.54;101838.53;5066190;28;45189;-79
2021/11/07 13:00:05;;;;;;;;;0.00;0.00;;;;;13.20;62.79;101833.34;5065526;28;47395;-80
2021/11/07 13:02:32;;;;;;;;;0.00;0.00;;;;;13.19;62.59;101828.97;5081825;28;45519;-80
2021/11/07 13:05:08;;;;;;;;;0.00;0.00;;;;;12.99;62.21;101802.53;5084170;28;45271;-79
2021/11/07 13:07:34;;;;;;;;;0.00;0.00;;;;;13.23;62.40;101840.38;5083871;28;45732;-80
2021/11/07 13:10:05;;;;;;;;;0.00;0.00;;;;;13.22;62.46;101830.75;5083595;28;45996;-80
2021/11/07 13:12:36;;;;;;;;;1.25;0.00;;;;;13.04;62.00;101814.81;5083875;28;45271;-80
2021/11/07 13:15:19;;;;;;;;;0.75;0.75;;;;;13.08;62.36;101825.31;5083783;28;45361;-80
2021/11/07 13:20:56;;;;;;;;;0.00;0.00;;;;;12.86;61.88;101810.16;5083223;28;45303;-80
2021/11/07 13:26:20;;;;;;;;;5.50;1.00;;;;;13.11;62.20;101827.97;5083694;28;45264;-80
2021/11/07 13:31:40;;;;;;;;;0.00;0.00;;;;;12.98;61.45;101790.28;5082616;28;45534;-79
2021/11/07 13:34:06;;;;;;;;;1.00;1.00;;;;;13.10;61.50;101816.63;5083465;28;45375;-79
2021/11/07 13:36:41;;;;;;;;;0.00;0.00;;;;;13.09;61.41;101816.63;5082419;28;45310;-79
2021/11/07 13:39:06;;;;;;;;;0.00;0.00;;;;;13.17;61.42;101828.09;5083544;28;45364;-80
2021/11/07 13:41:33;;;;;;;;;0.25;0.00;;;;;13.01;60.90;101785.13;5083299;28;45557;-81
2021/11/07 13:44:14;;;;;;;;;0.00;0.00;;;;;13.29;61.13;101814.28;5083502;28;45365;-80
2021/11/07 13:47:00;;;;;;;;;0.00;0.00;;;;;13.32;61.13;101808.25;5083826;28;45220;-79
2021/11/07 13:49:25;;;;;;;;;1.00;1.00;;;;;13.17;60.63;101786.25;5083867;28;45252;-80
2021/11/07 13:52:03;;;;;;;;;0.00;0.00;;;;;13.26;60.15;101801.19;5082904;28;46145;-80
2021/11/07 13:54:36;;;;;;;;;0.00;0.00;;;;;13.18;60.69;101796.69;5083298;28;45346;-80
2021/11/07 13:57:02;;;;;;;;;0.75;0.75;;;;;13.13;60.31;101790.53;5064827;28;45419;-80
2021/11/07 13:59:35;;;;;;;;;0.75;0.75;;;;;13.08;59.90;101805.28;5083393;28;45588;-78